메인 페이지
METAR-TAF:

METAR-TAF

공항 :

래스고 +Prestwick, 스코틀랜드

위도: 55-30N, 경도: 004-35W, 고도: 20m

현재 날씨관측

예보는 27분 전, 04:20시(UTC)에 발표되었습니다.
여러 방향의 바람 1kt
온도 10°C
습도 93%
기압 1016 hPa
시정 10km 이상
고도 3700ft 상공 구름 조금

METAR: EGPK 130420Z VRB01KT 9999 FEW037 10/09 Q1016

시각: 05:47 (04:47 UTC)

예보

예보는 5 시간 52분 전, 22:55시(UTC)에 발표되었습니다.
예보 대상 시간: 13일 00시부터 13일 24시까지 (UTC)
3kt
시정 10km 이상
고도 3500ft 상공 구름 보통
확률 30% :
일시적
13일 15시부터 13일 24시까지 (UTC)
시정: 8000m
약한비,

TAF: EGPK 122255Z 1300/1324 08003KT 9999 SCT035 PROB30 TEMPO 1315/1324 8000 -RA

4,000개 이상의 공항 관측 자료 및 예보 (METAR 및 TAF 보고).

지도상에서 검색 가능한 기상관측소가 노란 점과 빨간 점으로 표시되어 있습니다.

기상관측소 명을 보려면 표시 위로 마우스를 이동하세요.

날씨 관측과 예보를 보려면 클릭하세요.

지도 변경 : 확대하려면 엑스 표시가 있는 녹색 버튼, 축소하려면 빼기 표시가 있는 녹색 버튼, 다음 페이지의 지도를 보려면 녹색 화살표를 클릭하세요.


METAR-TAF: